createdAt,value
2019-01-30T00:00:32.584Z,20.30
2019-01-30T00:03:02.320Z,17.57
2019-01-30T00:05:31.667Z,19.60
2019-01-30T00:08:00.391Z,19.23
2019-01-30T00:10:29.722Z,19.23
2019-01-30T00:12:58.393Z,16.77
2019-01-30T00:15:27.712Z,17.60
2019-01-30T00:17:57.040Z,18.47
2019-01-30T00:20:25.760Z,19.43
2019-01-30T00:22:54.435Z,20.10
2019-01-30T00:25:24.101Z,19.20
2019-01-30T00:27:53.415Z,18.13
2019-01-30T00:30:23.470Z,16.13
2019-01-30T00:32:52.761Z,20.20
2019-01-30T00:35:22.076Z,16.17
2019-01-30T00:37:51.359Z,17.53
2019-01-30T00:40:20.717Z,18.40
2019-01-30T00:42:50.004Z,16.80
2019-01-30T00:45:20.208Z,17.90
2019-01-30T00:47:48.920Z,14.60
2019-01-30T00:50:18.228Z,15.00
2019-01-30T00:52:47.549Z,17.13
2019-01-30T00:55:18.732Z,14.80
2019-01-30T00:57:48.132Z,15.57
2019-01-30T01:00:20.205Z,18.67
2019-01-30T01:02:49.487Z,14.53
2019-01-30T01:05:19.208Z,12.30
2019-01-30T01:07:48.536Z,14.00
2019-01-30T01:10:18.748Z,15.47
2019-01-30T01:12:48.082Z,16.37
2019-01-30T01:15:17.373Z,15.27
2019-01-30T01:17:47.608Z,12.93
2019-01-30T01:20:17.700Z,13.03
2019-01-30T01:22:47.090Z,12.50
2019-01-30T01:25:17.179Z,14.27
2019-01-30T01:27:46.460Z,13.10
2019-01-30T01:30:24.849Z,10.50
2019-01-30T01:32:49.933Z,12.67
2019-01-30T01:35:19.274Z,10.93
2019-01-30T01:37:48.577Z,10.57
2019-01-30T01:40:17.964Z,9.33
2019-01-30T01:42:47.296Z,10.30
2019-01-30T01:45:18.756Z,9.13
2019-01-30T01:47:47.431Z,8.33
2019-01-30T01:50:19.099Z,10.30
2019-01-30T01:52:48.411Z,9.57
2019-01-30T01:55:17.134Z,9.27
2019-01-30T01:57:46.404Z,9.87
2019-01-30T02:00:18.545Z,9.93
2019-01-30T02:02:47.872Z,9.73
2019-01-30T02:05:17.621Z,9.00
2019-01-30T02:07:46.325Z,7.03
2019-01-30T02:10:16.464Z,8.50
2019-01-30T02:12:46.200Z,9.40
2019-01-30T02:15:18.685Z,6.90
2019-01-30T02:17:48.164Z,7.60
2019-01-30T02:20:19.597Z,6.60
2019-01-30T02:22:49.304Z,6.97
2019-01-30T02:25:18.638Z,7.27
2019-01-30T02:27:47.960Z,8.93
2019-01-30T02:30:18.165Z,7.30
2019-01-30T02:32:47.905Z,7.83
2019-01-30T02:35:16.646Z,8.37
2019-01-30T02:37:45.361Z,7.27
2019-01-30T02:40:15.280Z,7.30
2019-01-30T02:42:44.007Z,5.33
2019-01-30T02:45:16.660Z,6.50
2019-01-30T02:47:45.496Z,8.00
2019-01-30T02:50:15.086Z,6.30
2019-01-30T02:52:43.753Z,6.60
2019-01-30T02:55:14.565Z,6.73
2019-01-30T02:57:43.840Z,7.90
2019-01-30T03:00:34.307Z,7.53
2019-01-30T03:03:02.983Z,6.20
2019-01-30T03:05:31.891Z,8.23
2019-01-30T03:08:01.663Z,5.90
2019-01-30T03:10:30.975Z,5.90
2019-01-30T03:13:00.248Z,7.90
2019-01-30T03:15:29.051Z,6.33
2019-01-30T03:17:58.342Z,8.73
2019-01-30T03:20:27.903Z,6.10
2019-01-30T03:22:57.177Z,6.23
2019-01-30T03:25:26.840Z,6.27
2019-01-30T03:27:56.171Z,6.93
2019-01-30T03:30:27.794Z,6.10
2019-01-30T03:32:58.218Z,7.30
2019-01-30T03:35:27.485Z,7.00
2019-01-30T03:37:57.203Z,6.33
2019-01-30T03:40:26.528Z,6.87
2019-01-30T03:42:55.814Z,5.77
2019-01-30T03:45:24.946Z,5.83
2019-01-30T03:47:54.220Z,6.97
2019-01-30T03:50:23.612Z,7.20
2019-01-30T03:52:52.932Z,7.53
2019-01-30T03:55:22.652Z,6.90
2019-01-30T03:57:51.923Z,6.90
2019-01-30T04:00:23.312Z,8.67
2019-01-30T04:02:53.156Z,9.97
2019-01-30T04:05:22.489Z,6.23
2019-01-30T04:07:52.182Z,7.33
2019-01-30T04:10:22.621Z,6.50
2019-01-30T04:12:51.315Z,6.47
2019-01-30T04:15:21.406Z,6.47
2019-01-30T04:17:50.138Z,6.23
2019-01-30T04:20:19.363Z,8.40
2019-01-30T04:22:49.159Z,6.67
2019-01-30T04:25:18.992Z,6.33
2019-01-30T04:27:48.341Z,5.37
2019-01-30T04:30:20.740Z,5.63
2019-01-30T04:32:50.016Z,6.07
2019-01-30T04:35:19.285Z,6.97
2019-01-30T04:37:48.596Z,7.17
2019-01-30T04:40:19.681Z,7.40
2019-01-30T04:42:49.866Z,6.20
2019-01-30T04:45:21.904Z,6.40
2019-01-30T04:47:51.180Z,7.87
2019-01-30T04:50:20.543Z,6.33
2019-01-30T04:52:49.858Z,9.37
2019-01-30T04:55:20.432Z,6.20
2019-01-30T04:57:49.786Z,7.57
2019-01-30T05:00:21.384Z,10.17
2019-01-30T05:02:51.233Z,8.53
2019-01-30T05:05:20.550Z,5.97
2019-01-30T05:07:49.862Z,7.37
2019-01-30T05:10:19.520Z,8.00
2019-01-30T05:12:48.847Z,7.10
2019-01-30T05:15:19.626Z,5.77
2019-01-30T05:17:48.281Z,5.93
2019-01-30T05:20:18.752Z,6.83
2019-01-30T05:22:48.085Z,8.87
2019-01-30T05:25:18.956Z,8.60
2019-01-30T05:27:48.286Z,7.40
2019-01-30T05:30:21.148Z,8.30
2019-01-30T05:32:50.502Z,6.33
2019-01-30T05:35:19.269Z,7.70
2019-01-30T05:37:51.199Z,5.83
2019-01-30T05:40:19.602Z,7.57
2019-01-30T05:42:48.884Z,8.37
2019-01-30T05:45:18.503Z,7.37
2019-01-30T05:47:47.844Z,8.00
2019-01-30T05:50:17.729Z,7.23
2019-01-30T05:52:46.411Z,7.77
2019-01-30T05:55:16.563Z,7.03
2019-01-30T05:57:45.268Z,6.17
2019-01-30T06:00:42.980Z,7.53
2019-01-30T06:03:12.345Z,8.07
2019-01-30T06:05:41.625Z,8.60
2019-01-30T06:08:10.944Z,6.90
2019-01-30T06:10:40.329Z,7.93
2019-01-30T06:13:09.638Z,6.87
2019-01-30T06:15:38.915Z,7.27
2019-01-30T06:18:08.249Z,8.80
2019-01-30T06:20:37.526Z,9.60
2019-01-30T06:23:06.835Z,8.57
2019-01-30T06:25:35.500Z,7.47
2019-01-30T06:28:06.357Z,8.00
2019-01-30T06:30:35.644Z,8.40
2019-01-30T06:33:05.079Z,8.67
2019-01-30T06:35:34.352Z,9.00
2019-01-30T06:38:04.056Z,9.17
2019-01-30T06:40:34.601Z,8.03
2019-01-30T06:43:04.430Z,8.90
2019-01-30T06:45:33.744Z,8.10
2019-01-30T06:48:03.018Z,8.30
2019-01-30T06:50:31.744Z,8.57
2019-01-30T06:53:01.017Z,9.90
2019-01-30T06:55:30.386Z,8.83
2019-01-30T06:57:59.721Z,7.87
2019-01-30T07:00:29.075Z,10.47
2019-01-30T07:02:59.331Z,9.40
2019-01-30T07:05:28.608Z,9.67
2019-01-30T07:07:57.933Z,8.37
2019-01-30T07:10:28.640Z,8.03
2019-01-30T07:12:57.961Z,10.67
2019-01-30T07:15:27.270Z,8.43
2019-01-30T07:17:56.577Z,9.47
2019-01-30T07:20:26.170Z,8.93
2019-01-30T07:22:55.490Z,10.47
2019-01-30T07:25:24.771Z,9.60
2019-01-30T07:27:54.076Z,9.67
2019-01-30T07:30:35.622Z,10.57
2019-01-30T07:33:06.264Z,10.67
2019-01-30T07:35:35.568Z,11.33
2019-01-30T07:38:05.725Z,10.70
2019-01-30T07:40:35.081Z,12.03
2019-01-30T07:43:04.408Z,10.03
2019-01-30T07:45:33.676Z,10.93
2019-01-30T07:48:04.636Z,9.87
2019-01-30T07:50:33.912Z,9.50
2019-01-30T07:53:03.241Z,11.27
2019-01-30T07:55:32.578Z,12.00
2019-01-30T07:58:01.898Z,11.83
2019-01-30T08:00:33.273Z,9.07
2019-01-30T08:03:02.758Z,11.20
2019-01-30T08:05:32.074Z,11.97
2019-01-30T08:08:01.402Z,12.70
2019-01-30T08:10:30.732Z,12.53
2019-01-30T08:13:00.020Z,11.40
2019-01-30T08:15:29.297Z,13.83
2019-01-30T08:17:58.841Z,11.13
2019-01-30T08:20:28.124Z,15.07
2019-01-30T08:22:57.623Z,15.50
2019-01-30T08:25:27.699Z,16.53
2019-01-30T08:27:58.079Z,13.10
2019-01-30T08:30:32.015Z,14.50
2019-01-30T08:33:05.402Z,16.60
2019-01-30T08:35:34.652Z,14.67
2019-01-30T08:38:05.768Z,14.33
2019-01-30T08:40:35.232Z,12.50
2019-01-30T08:43:05.089Z,10.90
2019-01-30T08:45:34.363Z,16.43
2019-01-30T08:48:03.680Z,12.10
2019-01-30T08:50:33.003Z,14.43
2019-01-30T08:53:02.379Z,12.63
2019-01-30T08:55:31.656Z,13.80
2019-01-30T08:58:00.976Z,12.37
2019-01-30T09:00:31.533Z,12.63
2019-01-30T09:03:00.880Z,14.33
2019-01-30T09:05:30.225Z,13.30
2019-01-30T09:07:59.540Z,15.87
2019-01-30T09:10:29.282Z,11.60
2019-01-30T09:12:59.102Z,13.10
2019-01-30T09:15:28.965Z,11.70
2019-01-30T09:17:58.448Z,13.43
2019-01-30T09:20:28.301Z,12.93
2019-01-30T09:22:57.589Z,14.40
2019-01-30T09:25:29.202Z,12.37
2019-01-30T09:27:59.367Z,13.03
2019-01-30T09:30:31.182Z,13.67
2019-01-30T09:33:01.049Z,13.73
2019-01-30T09:35:30.397Z,12.47
2019-01-30T09:37:59.707Z,12.33
2019-01-30T09:40:29.116Z,16.30
2019-01-30T09:42:58.972Z,14.97
2019-01-30T09:45:28.341Z,12.07
2019-01-30T09:47:57.790Z,14.00
2019-01-30T09:50:27.172Z,14.53
2019-01-30T09:52:56.583Z,14.00
2019-01-30T09:55:25.942Z,12.97
2019-01-30T09:57:55.305Z,12.27
2019-01-30T10:00:26.634Z,13.20
2019-01-30T10:02:56.728Z,12.60
2019-01-30T10:05:26.028Z,14.00
2019-01-30T10:07:55.531Z,13.87
2019-01-30T10:10:33.245Z,13.87
2019-01-30T10:13:03.964Z,12.53
2019-01-30T10:15:36.158Z,12.73
2019-01-30T10:18:06.576Z,14.47
2019-01-30T10:20:36.739Z,13.03
2019-01-30T10:23:06.440Z,12.10
2019-01-30T10:25:35.764Z,14.13
2019-01-30T10:28:15.871Z,14.93
2019-01-30T10:30:39.424Z,13.27
2019-01-30T10:33:08.757Z,13.47
2019-01-30T10:35:38.477Z,13.47
2019-01-30T10:38:07.756Z,14.60
2019-01-30T10:40:37.240Z,13.00
2019-01-30T10:43:07.329Z,12.83
2019-01-30T10:45:38.338Z,13.87
2019-01-30T10:48:07.714Z,12.13
2019-01-30T10:50:36.992Z,12.17
2019-01-30T10:53:06.325Z,11.67
2019-01-30T10:55:36.188Z,11.37
2019-01-30T10:58:08.917Z,12.00
2019-01-30T11:00:43.868Z,11.37
2019-01-30T11:03:13.213Z,9.70
2019-01-30T11:05:44.443Z,10.10
2019-01-30T11:08:14.000Z,11.10
2019-01-30T11:10:43.334Z,10.10
2019-01-30T11:13:13.538Z,12.13
2019-01-30T11:15:42.858Z,10.53
2019-01-30T11:18:15.020Z,10.17
2019-01-30T11:20:44.610Z,9.63
2019-01-30T11:23:13.929Z,11.37
2019-01-30T11:25:45.448Z,11.13
2019-01-30T11:28:15.931Z,12.50
2019-01-30T11:30:45.303Z,14.10
2019-01-30T11:33:14.592Z,12.53
2019-01-30T11:35:43.909Z,14.07
2019-01-30T11:38:13.316Z,13.83
2019-01-30T11:40:42.633Z,12.33
2019-01-30T11:43:11.952Z,11.57
2019-01-30T11:45:43.200Z,11.47
2019-01-30T11:48:12.523Z,11.30
2019-01-30T11:50:42.851Z,15.00
2019-01-30T11:53:13.153Z,14.20
2019-01-30T11:55:42.515Z,13.87
2019-01-30T11:58:11.790Z,13.77
2019-01-30T12:01:05.904Z,13.10
2019-01-30T12:03:35.259Z,12.23
2019-01-30T12:06:05.174Z,13.07
2019-01-30T12:08:34.419Z,14.70
2019-01-30T12:11:04.092Z,14.13
2019-01-30T12:13:33.408Z,14.40
2019-01-30T12:16:02.724Z,14.73
2019-01-30T12:18:32.432Z,16.07
2019-01-30T12:21:01.749Z,16.70
2019-01-30T12:23:31.034Z,17.02
2019-01-30T12:26:01.014Z,16.10
2019-01-30T12:28:30.314Z,15.87
2019-01-30T12:30:59.642Z,15.00
2019-01-30T12:33:28.956Z,15.20
2019-01-30T12:35:58.288Z,16.40
2019-01-30T12:38:27.573Z,17.30
2019-01-30T12:40:56.901Z,16.50
2019-01-30T12:43:26.224Z,15.93
2019-01-30T12:45:55.567Z,15.23
2019-01-30T12:48:43.969Z,15.80
2019-01-30T12:51:13.287Z,17.20
2019-01-30T12:53:42.609Z,15.33
2019-01-30T12:56:11.876Z,15.07
2019-01-30T12:58:41.311Z,17.33
2019-01-30T13:01:10.723Z,16.13
2019-01-30T13:03:40.130Z,15.67
2019-01-30T13:06:09.617Z,14.40
2019-01-30T13:08:39.065Z,16.37
2019-01-30T13:11:08.594Z,14.73
2019-01-30T13:13:38.163Z,15.23
2019-01-30T13:16:08.109Z,15.73
2019-01-30T13:18:37.613Z,16.43
2019-01-30T13:21:07.145Z,16.53
2019-01-30T13:23:36.607Z,16.07
2019-01-30T13:26:07.133Z,16.37
2019-01-30T13:28:36.580Z,14.77
2019-01-30T13:31:05.957Z,16.47
2019-01-30T13:33:35.302Z,15.50
2019-01-30T13:36:07.618Z,15.90
2019-01-30T13:38:49.085Z,15.67
2019-01-30T13:41:18.452Z,15.10
2019-01-30T13:43:47.792Z,15.60
2019-01-30T13:46:17.084Z,14.40
2019-01-30T13:48:46.367Z,14.73
2019-01-30T13:51:15.718Z,15.93
2019-01-30T13:53:45.946Z,14.47
2019-01-30T13:56:15.395Z,14.23
2019-01-30T13:58:44.725Z,14.63
2019-01-30T14:01:17.998Z,14.73
2019-01-30T14:03:47.386Z,13.83
2019-01-30T14:06:17.683Z,15.23
2019-01-30T14:08:47.044Z,16.00
2019-01-30T14:11:16.496Z,15.03
2019-01-30T14:13:46.480Z,15.93
2019-01-30T14:16:16.313Z,14.97
2019-01-30T14:18:45.692Z,14.20
2019-01-30T14:21:15.034Z,16.30
2019-01-30T14:23:44.441Z,15.20
2019-01-30T14:26:13.801Z,15.13
2019-01-30T14:28:43.186Z,15.13
2019-01-30T14:31:12.546Z,15.97
2019-01-30T14:33:41.959Z,15.70
2019-01-30T14:36:11.725Z,20.57
2019-01-30T14:38:41.056Z,18.10
2019-01-30T14:41:10.390Z,20.07
2019-01-30T14:43:39.720Z,16.53
2019-01-30T14:46:09.192Z,21.53
2019-01-30T14:48:39.144Z,19.90
2019-01-30T14:51:08.508Z,17.90
2019-01-30T14:53:37.832Z,19.17
2019-01-30T14:56:07.584Z,22.00
2019-01-30T14:58:37.017Z,19.80
2019-01-30T15:01:06.930Z,20.83
2019-01-30T15:03:36.422Z,21.17
2019-01-30T15:06:07.829Z,22.80
2019-01-30T15:08:37.111Z,20.53
2019-01-30T15:11:06.909Z,20.87
2019-01-30T15:13:36.784Z,22.43
2019-01-30T15:16:06.880Z,20.27
2019-01-30T15:18:36.324Z,23.70
2019-01-30T15:21:06.597Z,24.23
2019-01-30T15:23:35.978Z,24.00
2019-01-30T15:26:05.681Z,23.03
2019-01-30T15:28:34.998Z,23.27
2019-01-30T15:31:04.976Z,25.70
2019-01-30T15:33:34.295Z,22.37
2019-01-30T15:36:04.217Z,22.90
2019-01-30T15:38:33.503Z,27.03
2019-01-30T15:41:02.824Z,23.43
2019-01-30T15:43:32.160Z,25.40
2019-01-30T15:46:01.484Z,27.57
2019-01-30T15:48:30.753Z,23.73
2019-01-30T15:51:00.080Z,25.13
2019-01-30T15:53:29.684Z,23.43
2019-01-30T15:55:59.043Z,24.37
2019-01-30T15:58:28.388Z,25.97
2019-01-30T16:01:05.344Z,30.50
2019-01-30T16:03:34.802Z,23.63
2019-01-30T16:06:04.972Z,25.73
2019-01-30T16:08:34.295Z,22.53
2019-01-30T16:11:03.872Z,22.37
2019-01-30T16:13:33.223Z,23.33
2019-01-30T16:16:05.009Z,22.33
2019-01-30T16:18:34.356Z,23.60
2019-01-30T16:21:03.628Z,25.30
2019-01-30T16:23:32.948Z,23.00
2019-01-30T16:26:02.240Z,23.43
2019-01-30T16:28:31.634Z,24.87
2019-01-30T16:31:01.560Z,23.50
2019-01-30T16:33:30.857Z,24.30
2019-01-30T16:36:00.185Z,20.77
2019-01-30T16:38:29.490Z,25.50
2019-01-30T16:40:58.814Z,25.60
2019-01-30T16:43:29.125Z,22.23
2019-01-30T16:45:58.430Z,22.27
2019-01-30T16:48:27.716Z,22.63
2019-01-30T16:50:57.825Z,24.20
2019-01-30T16:53:27.252Z,24.17
2019-01-30T16:55:56.644Z,22.93
2019-01-30T16:58:25.934Z,25.53
2019-01-30T17:00:55.292Z,24.60
2019-01-30T17:03:24.636Z,26.57
2019-01-30T17:05:53.916Z,27.37
2019-01-30T17:08:26.280Z,24.57
2019-01-30T17:10:55.612Z,23.57
2019-01-30T17:13:24.941Z,23.00
2019-01-30T17:15:54.227Z,23.77
2019-01-30T17:18:24.350Z,24.37
2019-01-30T17:20:54.288Z,24.83
2019-01-30T17:23:23.572Z,21.63
2019-01-30T17:25:52.932Z,23.20
2019-01-30T17:28:22.212Z,23.07
2019-01-30T17:31:08.020Z,22.90
2019-01-30T17:33:37.306Z,24.03
2019-01-30T17:36:17.888Z,25.07
2019-01-30T17:38:37.677Z,25.13
2019-01-30T17:41:07.944Z,21.87
2019-01-30T17:43:37.300Z,23.93
2019-01-30T17:46:06.988Z,23.30
2019-01-30T17:48:36.428Z,24.03
2019-01-30T17:51:05.747Z,28.10
2019-01-30T17:53:35.108Z,27.20
2019-01-30T17:56:04.932Z,23.77
2019-01-30T17:58:34.464Z,24.93
2019-01-30T18:01:05.137Z,25.77
2019-01-30T18:03:34.440Z,26.50
2019-01-30T18:06:03.769Z,27.83
2019-01-30T18:08:33.360Z,30.27
2019-01-30T18:11:02.693Z,30.90
2019-01-30T18:13:32.140Z,32.27
2019-01-30T18:16:01.477Z,32.17
2019-01-30T18:18:30.766Z,35.90
2019-01-30T18:21:00.101Z,39.87
2019-01-30T18:23:29.419Z,50.73
2019-01-30T18:26:01.226Z,46.37
2019-01-30T18:28:29.759Z,43.50
2019-01-30T18:30:59.074Z,42.00
2019-01-30T18:33:28.416Z,39.47
2019-01-30T18:35:58.186Z,31.47
2019-01-30T18:38:27.524Z,31.27
2019-01-30T18:40:56.851Z,27.03
2019-01-30T18:43:26.189Z,25.30
2019-01-30T18:45:55.512Z,26.57
2019-01-30T18:48:24.797Z,25.33
2019-01-30T18:50:56.825Z,25.03
2019-01-30T18:53:25.207Z,27.60
2019-01-30T18:55:54.504Z,23.70
2019-01-30T18:58:23.846Z,23.20
2019-01-30T19:00:53.847Z,28.83
2019-01-30T19:03:23.160Z,23.80
2019-01-30T19:05:52.852Z,25.33
2019-01-30T19:08:22.176Z,24.90
2019-01-30T19:10:51.506Z,27.57
2019-01-30T19:13:20.834Z,25.30
2019-01-30T19:15:50.131Z,23.03
2019-01-30T19:18:19.505Z,26.17
2019-01-30T19:20:49.913Z,25.93
2019-01-30T19:23:19.199Z,27.00
2019-01-30T19:25:48.536Z,27.63
2019-01-30T19:28:17.830Z,30.60
2019-01-30T19:30:47.588Z,30.73
2019-01-30T19:33:16.909Z,32.33
2019-01-30T19:35:46.291Z,29.07
2019-01-30T19:38:16.685Z,31.30
2019-01-30T19:40:46.062Z,29.43
2019-01-30T19:43:15.388Z,28.33
2019-01-30T19:45:44.709Z,30.33
2019-01-30T19:48:14.346Z,28.30
2019-01-30T19:50:43.753Z,27.57
2019-01-30T19:53:13.043Z,30.03
2019-01-30T19:55:42.331Z,29.13
2019-01-30T19:58:12.329Z,28.80
2019-01-30T20:00:45.199Z,27.33
2019-01-30T20:03:17.384Z,30.63
2019-01-30T20:05:46.668Z,30.87
2019-01-30T20:08:17.797Z,31.57
2019-01-30T20:10:47.276Z,34.00
2019-01-30T20:13:16.865Z,33.77
2019-01-30T20:15:46.246Z,34.23
2019-01-30T20:18:15.859Z,39.13
2019-01-30T20:20:45.766Z,39.97
2019-01-30T20:23:16.788Z,38.67
2019-01-30T20:25:46.069Z,38.30
2019-01-30T20:28:15.353Z,36.47
2019-01-30T20:30:44.746Z,38.00
2019-01-30T20:33:14.032Z,40.70
2019-01-30T20:35:43.368Z,36.87
2019-01-30T20:38:12.658Z,39.80
2019-01-30T20:40:41.953Z,50.63
2019-01-30T20:43:11.280Z,46.10
2019-01-30T20:45:40.745Z,46.53
2019-01-30T20:48:10.493Z,47.97
2019-01-30T20:50:40.892Z,41.30
2019-01-30T20:53:10.293Z,37.50
2019-01-30T20:55:39.663Z,38.57
2019-01-30T20:58:08.959Z,38.90
2019-01-30T21:00:39.446Z,38.33
2019-01-30T21:03:09.372Z,37.87
2019-01-30T21:05:38.708Z,34.10
2019-01-30T21:08:08.795Z,35.20
2019-01-30T21:10:40.887Z,34.77
2019-01-30T21:13:10.919Z,35.63
2019-01-30T21:15:40.395Z,32.77
2019-01-30T21:18:09.683Z,33.23
2019-01-30T21:20:38.987Z,33.73
2019-01-30T21:23:08.808Z,32.00
2019-01-30T21:25:38.100Z,33.10
2019-01-30T21:28:07.841Z,33.33
2019-01-30T21:30:39.145Z,36.17
2019-01-30T21:33:08.990Z,38.60
2019-01-30T21:35:38.784Z,55.53
2019-01-30T21:38:08.810Z,74.70
2019-01-30T21:40:38.581Z,61.00
2019-01-30T21:43:08.329Z,56.50
2019-01-30T21:45:36.999Z,59.33
2019-01-30T21:48:06.128Z,54.33
2019-01-30T21:50:35.464Z,49.63
2019-01-30T21:53:04.760Z,48.03
2019-01-30T21:55:34.661Z,45.10
2019-01-30T21:58:04.004Z,44.30
2019-01-30T22:00:32.692Z,41.90
2019-01-30T22:03:02.000Z,43.23
2019-01-30T22:05:30.672Z,46.57
2019-01-30T22:08:01.347Z,41.37
2019-01-30T22:10:30.737Z,39.37
2019-01-30T22:13:00.132Z,38.43
2019-01-30T22:15:30.840Z,37.30
2019-01-30T22:18:00.159Z,40.13
2019-01-30T22:20:29.496Z,40.30
2019-01-30T22:22:59.860Z,43.43
2019-01-30T22:25:29.160Z,40.23
2019-01-30T22:27:58.493Z,45.60
2019-01-30T22:30:33.430Z,41.53
2019-01-30T22:33:03.171Z,40.23
2019-01-30T22:35:32.497Z,43.90
2019-01-30T22:38:12.336Z,41.03
2019-01-30T22:40:32.865Z,44.33
2019-01-30T22:43:02.173Z,39.67
2019-01-30T22:45:31.496Z,42.03
2019-01-30T22:48:00.804Z,42.03
2019-01-30T22:50:30.131Z,41.10
2019-01-30T22:52:59.430Z,38.23
2019-01-30T22:55:28.792Z,41.83
2019-01-30T22:57:57.504Z,46.23
2019-01-30T23:01:06.658Z,42.47
2019-01-30T23:04:13.012Z,42.90
2019-01-30T23:07:19.459Z,43.43
2019-01-30T23:10:34.928Z,40.40
2019-01-30T23:13:34.623Z,43.57
2019-01-30T23:16:49.805Z,39.90
2019-01-30T23:19:39.878Z,39.07
2019-01-30T23:22:38.057Z,43.33
2019-01-30T23:25:39.834Z,40.33
2019-01-30T23:28:26.492Z,43.13
2019-01-30T23:31:24.130Z,39.40
2019-01-30T23:34:34.362Z,40.07
2019-01-30T23:37:42.921Z,39.57
2019-01-30T23:40:53.516Z,41.53
2019-01-30T23:43:45.855Z,43.77
2019-01-30T23:46:54.896Z,41.00
2019-01-30T23:50:00.816Z,39.47
2019-01-30T23:53:14.003Z,48.77
2019-01-30T23:56:16.156Z,46.00
2019-01-30T23:59:29.811Z,41.97
